Time;durP1;ratioP1;P1;durP2;ratioP2;P2;SDS_P1;SDS_P2;PMS_P1;PMS_P2;Temp;Humidity;BMP_temperature;BMP_pressure;BME280_temperature;BME280_humidity;BME280_pressure;Samples;Min_cycle;Max_cycle;Signal;HPM_P1;HPM_P2
2023/11/20 00:07:20;;;;;;;15.70;2.30;;;12.40;99.90;;;;;;20660882;28;20103;-47
2023/11/20 00:17:20;;;;;;;17.35;2.42;;;12.40;99.90;;;;;;20661288;28;20112;-47
2023/11/20 00:27:21;;;;;;;19.10;2.28;;;12.30;99.90;;;;;;20655507;28;20049;-46
2023/11/20 00:37:22;;;;;;;20.50;2.47;;;12.20;99.90;;;;;;20672085;28;20038;-47
2023/11/20 00:47:23;;;;;;;11.82;2.45;;;12.20;99.90;;;;;;20670960;28;20068;-47
2023/11/20 00:57:23;;;;;;;12.20;3.00;;;12.20;99.90;;;;;;20691761;28;20041;-47
2023/11/20 01:07:24;;;;;;;17.63;2.90;;;12.10;99.90;;;;;;20741734;28;20645;-47
2023/11/20 01:17:24;;;;;;;18.58;2.70;;;12.10;99.90;;;;;;20667960;28;20906;-46
2023/11/20 01:27:25;;;;;;;16.05;2.42;;;12.00;99.90;;;;;;20667298;28;20046;-47
2023/11/20 01:37:25;;;;;;;17.33;3.08;;;11.90;99.90;;;;;;20676182;28;20053;-47
2023/11/20 01:47:26;;;;;;;17.27;2.85;;;11.90;99.90;;;;;;20693003;28;20447;-46
2023/11/20 01:57:27;;;;;;;16.33;2.92;;;11.90;99.90;;;;;;20719502;28;20049;-47
2023/11/20 02:07:27;;;;;;;17.27;2.73;;;11.90;99.90;;;;;;20735138;28;20080;-47
2023/11/20 02:17:28;;;;;;;16.77;2.58;;;11.80;99.90;;;;;;20683129;28;20473;-47
2023/11/20 02:27:52;;;;;;;14.75;2.22;;;11.80;99.90;;;;;;20676701;28;20033;-47
2023/11/20 02:37:53;;;;;;;18.77;2.92;;;11.80;99.90;;;;;;20681865;28;20143;-46
2023/11/20 02:47:54;;;;;;;17.05;2.72;;;11.80;99.90;;;;;;20668955;28;20030;-47
2023/11/20 02:57:55;;;;;;;12.82;2.00;;;11.70;99.90;;;;;;20736242;28;20053;-47
2023/11/20 03:07:55;;;;;;;23.30;3.05;;;11.60;99.90;;;;;;20717102;28;20465;-47
2023/11/20 03:17:56;;;;;;;19.15;2.58;;;11.60;99.90;;;;;;20749467;28;20053;-48
2023/11/20 03:27:56;;;;;;;23.03;2.97;;;11.60;99.90;;;;;;20750154;28;20042;-47
2023/11/20 03:37:57;;;;;;;26.90;3.15;;;11.50;99.90;;;;;;20754651;28;20574;-47
2023/11/20 03:47:57;;;;;;;28.45;2.92;;;11.40;99.90;;;;;;20760857;28;20418;-47
2023/11/20 03:57:58;;;;;;;22.58;3.42;;;11.50;99.90;;;;;;20733926;28;20053;-47
2023/11/20 04:07:58;;;;;;;18.10;2.72;;;11.40;99.90;;;;;;20749635;28;20601;-47
2023/11/20 04:17:59;;;;;;;24.30;3.03;;;11.40;99.90;;;;;;20748074;28;20115;-46
2023/11/20 04:28:01;;;;;;;24.02;3.10;;;11.30;99.90;;;;;;20706832;28;20042;-47
2023/11/20 04:38:03;;;;;;;23.75;3.00;;;11.40;99.90;;;;;;20751353;28;20041;-47
2023/11/20 04:48:04;;;;;;;22.92;3.47;;;11.50;99.90;;;;;;20756351;28;20098;-47
2023/11/20 04:58:05;;;;;;;20.63;3.55;;;11.40;99.90;;;;;;20704003;28;21145;-47
2023/11/20 05:08:05;;;;;;;25.95;2.65;;;11.30;99.90;;;;;;20690565;28;20061;-47
2023/11/20 05:18:06;;;;;;;19.87;3.00;;;11.40;99.90;;;;;;20680973;28;20042;-47
2023/11/20 05:28:07;;;;;;;19.65;2.47;;;11.40;99.90;;;;;;20683200;28;20447;-47
2023/11/20 05:38:07;;;;;;;16.60;2.55;;;11.20;99.90;;;;;;20685836;28;20081;-47
2023/11/20 05:48:08;;;;;;;21.95;3.25;;;11.10;99.90;;;;;;20727720;28;20054;-47
2023/11/20 05:58:08;;;;;;;17.83;2.67;;;11.10;99.90;;;;;;20763301;28;20531;-47
2023/11/20 06:08:09;;;;;;;25.95;3.65;;;11.20;99.90;;;;;;20750575;28;20398;-47
2023/11/20 06:18:10;;;;;;;17.42;2.40;;;11.10;99.90;;;;;;20763316;28;20080;-47
2023/11/20 06:28:10;;;;;;;15.52;2.33;;;11.10;99.90;;;;;;20759679;28;20053;-46
2023/11/20 06:38:11;;;;;;;22.85;3.40;;;11.00;99.90;;;;;;20715678;28;20052;-47
2023/11/20 06:48:12;;;;;;;20.63;2.33;;;11.00;99.90;;;;;;20682405;28;20079;-47
2023/11/20 06:58:12;;;;;;;23.20;5.18;;;10.90;99.90;;;;;;20720635;28;20121;-47
2023/11/20 07:08:15;;;;;;;14.95;2.42;;;10.80;99.90;;;;;;20686272;28;20613;-47
2023/11/20 07:18:15;;;;;;;16.85;3.65;;;10.70;99.90;;;;;;20687230;28;20038;-47
2023/11/20 07:28:16;;;;;;;15.77;2.60;;;10.90;99.90;;;;;;20689338;28;20033;-47
2023/11/20 07:38:16;;;;;;;18.60;3.35;;;11.00;99.90;;;;;;20684719;28;20038;-47
2023/11/20 07:48:17;;;;;;;19.67;2.55;;;10.80;99.90;;;;;;20705995;28;20693;-46
2023/11/20 07:58:18;;;;;;;22.75;2.75;;;10.90;99.90;;;;;;20742079;28;20045;-47
2023/11/20 08:08:19;;;;;;;23.25;4.82;;;10.70;99.90;;;;;;20772398;28;20037;-46
2023/11/20 08:18:20;;;;;;;21.40;4.45;;;10.70;99.90;;;;;;20770168;28;20076;-47
2023/11/20 08:28:22;;;;;;;23.05;4.15;;;10.60;99.90;;;;;;20759794;28;20049;-46
2023/11/20 08:38:22;;;;;;;26.48;3.22;;;10.60;99.90;;;;;;20731253;28;20050;-47
2023/11/20 08:48:23;;;;;;;26.45;3.83;;;10.50;99.90;;;;;;20773952;28;20029;-47
2023/11/20 08:58:24;;;;;;;27.25;4.53;;;10.50;99.90;;;;;;20719213;28;20122;-47
2023/11/20 09:08:24;;;;;;;25.10;4.47;;;10.50;99.90;;;;;;20699921;28;20092;-47
2023/11/20 09:18:25;;;;;;;20.90;3.33;;;10.60;99.90;;;;;;20690696;28;20184;-47
2023/11/20 09:28:25;;;;;;;23.70;3.95;;;10.50;99.90;;;;;;20680871;28;20052;-47
2023/11/20 09:38:26;;;;;;;25.10;3.97;;;10.50;99.90;;;;;;20681436;28;20504;-47
2023/11/20 09:48:35;;;;;;;27.67;4.55;;;10.50;99.90;;;;;;20688166;28;20134;-47
2023/11/20 09:58:36;;;;;;;22.73;4.30;;;10.80;99.90;;;;;;20688509;28;20034;-47
2023/11/20 10:08:40;;;;;;;22.23;3.50;;;11.00;99.90;;;;;;20702868;28;20048;-47
2023/11/20 10:18:42;;;;;;;20.27;2.88;;;10.90;99.90;;;;;;20703623;28;20399;-47
2023/11/20 10:28:45;;;;;;;27.55;4.47;;;11.00;99.90;;;;;;20691429;28;20041;-47
2023/11/20 10:38:45;;;;;;;20.05;2.75;;;11.00;99.90;;;;;;20694130;28;20519;-47
2023/11/20 10:48:47;;;;;;;18.75;3.78;;;10.90;99.90;;;;;;20687614;28;20179;-47
2023/11/20 10:58:50;;;;;;;26.02;3.38;;;11.00;99.90;;;;;;20689769;28;20038;-47
2023/11/20 11:08:53;;;;;;;24.88;3.40;;;11.50;99.90;;;;;;20693763;28;20133;-47
2023/11/20 11:19:02;;;;;;;20.52;3.63;;;11.50;99.90;;;;;;20699349;28;20429;-47
2023/11/20 11:29:11;;;;;;;15.55;2.60;;;11.50;99.90;;;;;;20688959;28;20038;-47
2023/11/20 11:39:19;;;;;;;19.13;3.10;;;11.50;99.90;;;;;;20687042;28;20141;-47
2023/11/20 11:49:21;;;;;;;20.05;2.42;;;11.50;99.90;;;;;;20684374;28;20180;-47
2023/11/20 11:59:38;;;;;;;15.13;2.38;;;11.40;90.80;;;;;;20709582;28;20119;-47
2023/11/20 12:09:55;;;;;;;17.03;3.00;;;11.30;96.50;;;;;;20761771;28;20055;-47
2023/11/20 12:19:56;;;;;;;17.33;3.00;;;11.00;91.40;;;;;;20767613;28;20511;-47
2023/11/20 12:29:57;;;;;;;13.77;2.10;;;11.20;98.50;;;;;;20772613;28;20915;-47
2023/11/20 12:39:58;;;;;;;17.65;2.90;;;11.10;92.10;;;;;;20768710;28;20042;-47
2023/11/20 12:49:59;;;;;;;25.35;4.20;;;11.00;99.90;;;;;;20733313;28;20525;-47
2023/11/20 13:00:00;;;;;;;20.23;3.50;;;11.80;99.90;;;;;;20684870;28;20974;-47
2023/11/20 13:10:01;;;;;;;18.13;2.67;;;11.90;36.10;;;;;;20682436;28;20515;-47
2023/11/20 13:20:05;;;;;;;16.15;2.15;;;11.80;14.10;;;;;;20686074;28;20058;-48
2023/11/20 13:30:16;;;;;;;15.77;2.55;;;11.60;20.10;;;;;;20763751;28;20033;-48
2023/11/20 13:40:18;;;;;;;15.02;3.30;;;11.70;35.40;;;;;;20777520;28;20128;-47
2023/11/20 13:50:19;;;;;;;12.82;2.38;;;11.60;35.30;;;;;;20752317;28;20363;-47
2023/11/20 14:00:20;;;;;;;14.63;2.65;;;11.60;27.90;;;;;;20695621;28;20080;-47
2023/11/20 14:10:22;;;;;;;17.42;2.72;;;11.60;37.40;;;;;;20697746;28;20114;-47
2023/11/20 14:20:25;;;;;;;16.02;2.78;;;11.80;29.30;;;;;;20762040;28;20048;-47
2023/11/20 14:30:25;;;;;;;17.45;3.83;;;12.00;25.00;;;;;;20742024;28;20039;-47
2023/11/20 14:40:26;;;;;;;10.83;3.37;;;11.80;16.30;;;;;;20778858;28;20042;-47
2023/11/20 14:50:27;;;;;;;10.77;3.17;;;11.60;24.10;;;;;;20773464;28;20376;-47
2023/11/20 15:00:28;;;;;;;16.35;9.38;;;11.50;33.30;;;;;;20770780;28;20037;-48
2023/11/20 15:10:28;;;;;;;10.73;3.00;;;11.40;32.70;;;;;;20776175;28;20057;-47
2023/11/20 15:20:29;;;;;;;10.32;4.00;;;11.40;45.10;;;;;;20774975;28;20560;-47
2023/11/20 15:30:29;;;;;;;13.15;3.55;;;11.10;83.20;;;;;;20771193;28;20038;-47
2023/11/20 15:40:30;;;;;;;6.95;3.05;;;11.20;83.80;;;;;;20725117;28;20045;-47
2023/11/20 15:50:30;;;;;;;10.25;2.85;;;11.10;96.40;;;;;;20680701;28;20038;-47
2023/11/20 16:00:32;;;;;;;10.75;2.80;;;11.00;95.30;;;;;;20642882;28;20555;-47
2023/11/20 16:10:33;;;;;;;7.93;3.28;;;10.90;99.90;;;;;;20679130;28;20034;-47
2023/11/20 16:20:34;;;;;;;11.05;4.53;;;10.80;99.90;;;;;;20679876;28;20049;-47
2023/11/20 16:30:34;;;;;;;10.27;4.27;;;10.70;99.90;;;;;;20712958;28;20124;-47
2023/11/20 16:40:35;;;;;;;9.68;4.57;;;10.70;99.90;;;;;;20696249;28;20468;-47
2023/11/20 16:50:36;;;;;;;18.02;6.68;;;10.60;99.90;;;;;;20666342;28;20044;-47
2023/11/20 17:00:37;;;;;;;11.10;5.53;;;10.60;99.90;;;;;;20767229;28;20052;-48
2023/11/20 17:10:38;;;;;;;14.57;5.23;;;10.50;99.90;;;;;;20793175;28;20041;-47
2023/11/20 17:20:40;;;;;;;15.70;4.90;;;10.40;99.90;;;;;;20780095;28;20555;-46
2023/11/20 17:30:41;;;;;;;10.10;5.15;;;10.30;99.90;;;;;;20769554;28;20380;-47
2023/11/20 17:40:42;;;;;;;13.45;5.82;;;10.20;99.90;;;;;;20702037;28;20054;-47
2023/11/20 17:50:42;;;;;;;12.57;6.60;;;10.20;99.90;;;;;;20652433;28;20084;-47
2023/11/20 18:00:43;;;;;;;10.45;6.20;;;10.10;99.90;;;;;;20762201;28;20053;-47
2023/11/20 18:10:44;;;;;;;14.15;6.88;;;10.10;99.90;;;;;;20753622;28;20072;-47
2023/11/20 18:20:44;;;;;;;13.20;7.47;;;10.10;99.90;;;;;;20701585;28;20045;-47
2023/11/20 18:30:45;;;;;;;19.98;12.07;;;9.90;99.90;;;;;;20683049;28;20046;-47
2023/11/20 18:40:46;;;;;;;16.13;10.50;;;9.70;99.90;;;;;;20680769;28;20042;-47
2023/11/20 18:50:48;;;;;;;20.90;10.75;;;9.60;99.90;;;;;;20688025;28;20041;-50
2023/11/20 19:00:48;;;;;;;18.90;10.15;;;9.70;99.90;;;;;;20687303;28;20288;-47
2023/11/20 19:10:49;;;;;;;13.27;8.65;;;9.70;99.90;;;;;;20658014;28;20265;-48
2023/11/20 19:20:50;;;;;;;16.13;9.77;;;9.70;99.90;;;;;;20670298;28;20628;-47
2023/11/20 19:30:50;;;;;;;15.38;9.98;;;9.60;99.90;;;;;;20668143;28;20191;-47
2023/11/20 19:40:51;;;;;;;20.15;10.90;;;9.50;99.90;;;;;;20675428;28;20346;-47
2023/11/20 19:50:51;;;;;;;20.95;11.10;;;9.40;99.90;;;;;;20681626;28;20046;-48
2023/11/20 20:00:53;;;;;;;25.75;13.38;;;9.40;99.90;;;;;;20683783;28;20050;-47
2023/11/20 20:10:54;;;;;;;24.42;11.98;;;9.30;99.90;;;;;;20679099;28;20052;-48
2023/11/20 20:20:56;;;;;;;24.30;13.68;;;9.30;99.90;;;;;;20669898;28;20054;-48
2023/11/20 20:30:57;;;;;;;22.33;12.85;;;9.30;99.90;;;;;;20746672;28;20052;-47
2023/11/20 20:40:57;;;;;;;21.20;13.05;;;9.20;99.90;;;;;;20742067;28;20038;-47
2023/11/20 20:50:58;;;;;;;21.65;12.63;;;9.00;99.90;;;;;;20754014;28;20041;-47
2023/11/20 21:00:59;;;;;;;21.10;12.05;;;8.90;99.90;;;;;;20770212;28;20076;-48
2023/11/20 21:11:01;;;;;;;27.55;12.88;;;8.70;99.90;;;;;;20706159;28;20526;-47
2023/11/20 21:21:02;;;;;;;23.52;11.90;;;8.60;99.90;;;;;;20689411;28;20041;-48
2023/11/20 21:31:04;;;;;;;23.67;13.00;;;8.40;99.90;;;;;;20683619;28;20125;-47
2023/11/20 21:41:08;;;;;;;23.85;12.82;;;8.20;99.90;;;;;;20746941;28;20857;-47
2023/11/20 21:51:09;;;;;;;24.52;11.88;;;8.10;99.90;;;;;;20696771;28;20129;-47
2023/11/20 22:01:10;;;;;;;26.65;12.98;;;8.00;99.90;;;;;;20695202;28;20355;-47
2023/11/20 22:11:14;;;;;;;24.85;12.65;;;7.90;99.90;;;;;;20699042;28;20427;-47
2023/11/20 22:21:15;;;;;;;26.95;12.70;;;7.90;99.90;;;;;;20771707;28;20053;-47
2023/11/20 22:31:16;;;;;;;30.17;12.93;;;7.90;99.90;;;;;;20766631;28;20129;-47
2023/11/20 22:41:16;;;;;;;25.45;11.57;;;7.90;99.90;;;;;;20766565;28;20052;-47
2023/11/20 22:51:17;;;;;;;15.80;9.57;;;7.90;99.90;;;;;;20775726;28;20541;-47
2023/11/20 23:01:17;;;;;;;21.17;11.00;;;7.80;99.90;;;;;;20770877;28;20053;-48
2023/11/20 23:11:18;;;;;;;24.50;10.32;;;7.70;99.90;;;;;;20762284;28;20614;-48
2023/11/20 23:21:19;;;;;;;15.93;9.95;;;7.70;99.90;;;;;;20715503;28;20046;-47
2023/11/20 23:31:19;;;;;;;20.02;9.75;;;7.60;99.90;;;;;;20688244;28;20099;-47
2023/11/20 23:41:20;;;;;;;18.60;9.32;;;7.60;99.90;;;;;;20688434;28;20558;-47
2023/11/20 23:51:20;;;;;;;20.70;10.90;;;7.50;99.90;;;;;;20690202;28;20038;-47
